Time;durP1;ratioP1;P1;durP2;ratioP2;P2;SDS_P1;SDS_P2;PMS_P1;PMS_P2;Temp;Humidity;BMP_temperature;BMP_pressure;BME280_temperature;BME280_humidity;BME280_pressure;Samples;Min_cycle;Max_cycle;Signal;HPM_P1;HPM_P2
2021/08/17 00:01:43;;;;;;;6.37;3.63;;;12.70;97.30;;;;;;4968372;28;20209;-82
2021/08/17 00:04:08;;;;;;;8.93;3.10;;;12.70;97.30;;;;;;4969218;28;20178;-84
2021/08/17 00:06:34;;;;;;;10.83;3.27;;;12.70;97.30;;;;;;4967051;28;20190;-83
2021/08/17 00:08:59;;;;;;;12.20;3.93;;;12.60;97.30;;;;;;4965977;28;20611;-82
2021/08/17 00:11:25;;;;;;;6.10;3.37;;;12.60;97.30;;;;;;4966334;28;20198;-82
2021/08/17 00:13:50;;;;;;;11.67;3.67;;;12.60;97.30;;;;;;4965017;28;20178;-82
2021/08/17 00:16:16;;;;;;;12.30;3.77;;;12.50;97.30;;;;;;4966086;28;20190;-82
2021/08/17 00:18:42;;;;;;;8.47;3.80;;;12.50;97.30;;;;;;4965247;28;20233;-81
2021/08/17 00:21:08;;;;;;;14.20;4.53;;;12.50;97.30;;;;;;4966792;28;20262;-83
2021/08/17 00:23:33;;;;;;;10.30;3.90;;;12.50;97.30;;;;;;4965405;28;20477;-82
2021/08/17 00:25:59;;;;;;;6.53;3.27;;;12.50;97.30;;;;;;4964876;28;20214;-80
2021/08/17 00:28:24;;;;;;;8.23;3.03;;;12.50;97.30;;;;;;4965480;28;20182;-82
2021/08/17 00:30:50;;;;;;;7.13;4.13;;;12.50;97.30;;;;;;4983959;28;20289;-82
2021/08/17 00:33:15;;;;;;;7.87;3.70;;;12.50;97.30;;;;;;4966428;28;20241;-80
2021/08/17 00:35:41;;;;;;;8.70;4.37;;;12.50;97.30;;;;;;4964555;28;20187;-82
2021/08/17 00:38:06;;;;;;;13.30;4.53;;;12.50;97.30;;;;;;4964054;28;20206;-79
2021/08/17 00:40:33;;;;;;;7.93;3.43;;;12.40;97.30;;;;;;4964311;28;20574;-82
2021/08/17 00:42:59;;;;;;;8.10;4.63;;;12.40;97.30;;;;;;4961379;28;20233;-83
2021/08/17 00:45:27;;;;;;;10.20;4.13;;;12.40;97.30;;;;;;4960109;29;20557;-82
2021/08/17 00:47:57;;;;;;;6.70;3.67;;;12.40;97.30;;;;;;4959588;29;20811;-82
2021/08/17 00:50:24;;;;;;;8.83;4.37;;;12.40;97.30;;;;;;4959911;28;20816;-83
2021/08/17 00:52:54;;;;;;;7.27;4.07;;;12.40;97.30;;;;;;4960117;28;20477;-82
2021/08/17 00:55:20;;;;;;;8.07;4.50;;;12.40;97.30;;;;;;4960147;29;20426;-82
2021/08/17 00:57:46;;;;;;;14.27;5.00;;;12.40;97.30;;;;;;4960558;29;20423;-82
2021/08/17 01:00:13;;;;;;;11.73;4.30;;;12.40;97.30;;;;;;4959968;28;20442;-80
2021/08/17 01:02:40;;;;;;;9.60;4.60;;;12.40;97.30;;;;;;4960365;29;20212;-81
2021/08/17 01:05:06;;;;;;;16.83;4.23;;;12.50;97.30;;;;;;4960645;29;20473;-81
2021/08/17 01:07:32;;;;;;;17.90;6.37;;;12.50;97.30;;;;;;4959046;29;20422;-81
2021/08/17 01:09:58;;;;;;;12.87;4.00;;;12.40;97.30;;;;;;4960891;29;20419;-81
2021/08/17 01:12:24;;;;;;;7.50;3.67;;;12.50;97.30;;;;;;4959102;29;20438;-82
2021/08/17 01:14:49;;;;;;;10.03;4.57;;;12.50;97.30;;;;;;4959166;29;20568;-80
2021/08/17 01:17:19;;;;;;;10.67;3.87;;;12.50;97.30;;;;;;4962061;29;20259;-83
2021/08/17 01:19:45;;;;;;;22.10;4.83;;;12.50;97.30;;;;;;4960513;29;20187;-82
2021/08/17 01:22:11;;;;;;;7.40;3.90;;;12.50;97.30;;;;;;4960185;29;20466;-82
2021/08/17 01:24:37;;;;;;;8.63;4.57;;;12.60;97.30;;;;;;4960946;29;20462;-82
2021/08/17 01:27:03;;;;;;;8.20;4.30;;;12.60;97.30;;;;;;4959936;29;20451;-82
2021/08/17 01:29:29;;;;;;;12.00;4.60;;;12.60;97.30;;;;;;4959267;29;20713;-82
2021/08/17 01:31:54;;;;;;;8.97;4.87;;;12.60;97.30;;;;;;4959395;29;20218;-83
2021/08/17 01:34:20;;;;;;;10.50;4.60;;;12.60;97.30;;;;;;4959939;29;20910;-82
2021/08/17 01:36:45;;;;;;;9.50;3.83;;;12.60;97.30;;;;;;4963105;29;20180;-82
2021/08/17 01:39:11;;;;;;;13.30;4.73;;;12.60;97.30;;;;;;4960111;29;20179;-81
2021/08/17 01:41:37;;;;;;;11.20;4.97;;;12.60;97.30;;;;;;4961100;28;20262;-83
2021/08/17 01:44:16;;;;;;;10.63;3.63;;;12.60;97.30;;;;;;4961066;29;20430;-81
2021/08/17 01:46:46;;;;;;;10.53;4.60;;;12.60;97.30;;;;;;4959665;29;20171;-82
2021/08/17 01:49:15;;;;;;;14.33;3.93;;;12.60;97.30;;;;;;4960249;29;20485;-79
2021/08/17 01:51:41;;;;;;;16.40;5.40;;;12.50;97.30;;;;;;4960265;28;20442;-83
2021/08/17 01:54:07;;;;;;;8.73;4.50;;;12.50;97.30;;;;;;4960672;29;20442;-82
2021/08/17 01:56:33;;;;;;;17.93;4.67;;;12.50;97.30;;;;;;4960356;29;20202;-82
2021/08/17 01:59:01;;;;;;;8.93;3.90;;;12.50;97.30;;;;;;4959125;29;20844;-83
2021/08/17 02:01:26;;;;;;;17.30;5.80;;;12.50;97.30;;;;;;4958797;28;20218;-82
2021/08/17 02:03:52;;;;;;;8.73;4.67;;;12.50;97.30;;;;;;4959770;29;20461;-83
2021/08/17 02:06:17;;;;;;;13.73;4.67;;;12.50;97.30;;;;;;4962906;28;20220;-81
2021/08/17 02:08:43;;;;;;;8.63;4.03;;;12.40;97.30;;;;;;4965156;29;20186;-82
2021/08/17 02:11:08;;;;;;;11.70;4.80;;;12.40;97.30;;;;;;4970385;29;20685;-81
2021/08/17 02:13:34;;;;;;;11.07;4.70;;;12.40;97.30;;;;;;4971112;29;20207;-81
2021/08/17 02:16:00;;;;;;;13.83;5.07;;;12.40;97.30;;;;;;4970481;29;20223;-80
2021/08/17 02:18:30;;;;;;;14.47;6.20;;;12.40;97.30;;;;;;4970858;29;20184;-79
2021/08/17 02:20:58;;;;;;;11.00;4.73;;;12.40;97.30;;;;;;4971327;29;20446;-81
2021/08/17 02:23:24;;;;;;;11.40;4.50;;;12.40;97.30;;;;;;4970335;29;20431;-80
2021/08/17 02:25:50;;;;;;;10.20;4.27;;;12.40;97.30;;;;;;4965551;29;20473;-79
2021/08/17 02:28:15;;;;;;;7.93;3.73;;;12.50;97.30;;;;;;4965779;29;20874;-80
2021/08/17 02:30:41;;;;;;;10.73;4.10;;;12.50;97.30;;;;;;4964226;29;20233;-81
2021/08/17 02:33:07;;;;;;;8.30;4.80;;;12.50;97.30;;;;;;4964304;29;20183;-80
2021/08/17 02:35:32;;;;;;;11.70;5.77;;;12.50;97.30;;;;;;4963906;29;20218;-81
2021/08/17 02:37:58;;;;;;;8.03;3.43;;;12.50;97.30;;;;;;4964182;29;20427;-80
2021/08/17 02:40:24;;;;;;;19.43;4.77;;;12.50;97.30;;;;;;4963379;29;20191;-80
2021/08/17 02:42:49;;;;;;;10.20;3.80;;;12.50;97.30;;;;;;4963968;29;20290;-81
2021/08/17 02:45:15;;;;;;;6.87;4.17;;;12.50;97.30;;;;;;4962967;29;20215;-81
2021/08/17 02:47:40;;;;;;;8.20;4.40;;;12.40;97.30;;;;;;4961791;29;20187;-79
2021/08/17 02:50:07;;;;;;;10.20;4.47;;;12.40;97.30;;;;;;4962084;28;20180;-81
2021/08/17 02:52:33;;;;;;;11.30;5.20;;;12.50;97.30;;;;;;4963503;29;20207;-79
2021/08/17 02:54:58;;;;;;;9.90;5.00;;;12.50;97.30;;;;;;4962120;29;21053;-80
2021/08/17 02:57:24;;;;;;;11.70;4.30;;;12.50;97.30;;;;;;4962119;29;20463;-81
2021/08/17 02:59:49;;;;;;;13.07;4.10;;;12.50;97.30;;;;;;4963626;29;20186;-82
2021/08/17 03:02:15;;;;;;;16.37;5.10;;;12.50;97.30;;;;;;4964015;28;20195;-82
2021/08/17 03:04:42;;;;;;;14.40;5.10;;;12.50;97.30;;;;;;4962324;29;20262;-82
2021/08/17 03:07:07;;;;;;;13.23;5.23;;;12.50;97.30;;;;;;4964178;28;20247;-82
2021/08/17 03:09:33;;;;;;;9.90;4.17;;;12.50;97.30;;;;;;4961781;29;20451;-81
2021/08/17 03:11:58;;;;;;;13.13;4.47;;;12.50;97.30;;;;;;4960567;29;20286;-81
2021/08/17 03:14:27;;;;;;;9.10;4.77;;;12.50;97.30;;;;;;4962001;28;20246;-84
2021/08/17 03:16:52;;;;;;;12.23;5.50;;;12.60;97.30;;;;;;4961378;28;20195;-83
2021/08/17 03:19:18;;;;;;;7.17;4.37;;;12.60;97.30;;;;;;4963874;29;20431;-82
2021/08/17 03:21:44;;;;;;;9.93;4.80;;;12.60;97.30;;;;;;4962513;29;20254;-80
2021/08/17 03:24:09;;;;;;;6.00;3.47;;;12.60;97.30;;;;;;4963140;29;20175;-82
2021/08/17 03:26:35;;;;;;;12.40;4.23;;;12.70;97.30;;;;;;4962657;29;20458;-83
2021/08/17 03:29:01;;;;;;;7.27;4.20;;;12.70;97.30;;;;;;4960828;29;20187;-81
2021/08/17 03:31:26;;;;;;;6.83;3.87;;;12.70;97.30;;;;;;4958362;29;20195;-81
2021/08/17 03:33:52;;;;;;;13.17;4.70;;;12.70;97.30;;;;;;4960307;28;20664;-80
2021/08/17 03:36:18;;;;;;;11.07;4.60;;;12.80;97.30;;;;;;4963125;29;20457;-83
2021/08/17 03:38:44;;;;;;;10.27;4.60;;;12.80;97.30;;;;;;4964418;29;20190;-81
2021/08/17 03:41:10;;;;;;;10.17;4.70;;;12.80;97.30;;;;;;4964859;28;20470;-82
2021/08/17 03:43:36;;;;;;;9.83;3.87;;;12.80;97.30;;;;;;4963410;29;20223;-82
2021/08/17 03:46:04;;;;;;;11.70;4.33;;;12.80;97.30;;;;;;4963274;28;20289;-83
2021/08/17 03:48:30;;;;;;;7.80;4.27;;;12.80;97.30;;;;;;4961578;29;20470;-81
2021/08/17 03:50:55;;;;;;;8.67;4.40;;;12.80;97.30;;;;;;4959963;28;20442;-82
2021/08/17 03:53:21;;;;;;;11.87;4.80;;;12.80;97.30;;;;;;4959880;29;20175;-83
2021/08/17 03:55:46;;;;;;;9.10;4.37;;;12.80;97.30;;;;;;4959021;29;20189;-82
2021/08/17 03:58:12;;;;;;;9.37;4.30;;;12.80;97.30;;;;;;4959746;29;20184;-80
2021/08/17 04:00:37;;;;;;;7.43;4.17;;;12.80;97.30;;;;;;4959642;28;20674;-81
2021/08/17 04:03:03;;;;;;;9.80;3.97;;;12.80;97.30;;;;;;4960153;29;20202;-82
2021/08/17 04:05:29;;;;;;;10.60;4.63;;;12.80;97.30;;;;;;4959406;29;20194;-80
2021/08/17 04:07:55;;;;;;;8.93;4.10;;;12.80;97.30;;;;;;4959544;29;20725;-82
2021/08/17 04:10:21;;;;;;;10.53;5.13;;;12.80;97.30;;;;;;4956343;28;20182;-80
2021/08/17 04:12:47;;;;;;;11.07;6.60;;;12.80;97.30;;;;;;4957445;29;20443;-82
2021/08/17 04:15:13;;;;;;;8.07;4.20;;;12.80;97.30;;;;;;4958111;29;20434;-80
2021/08/17 04:17:39;;;;;;;8.73;3.90;;;12.80;97.30;;;;;;4957360;29;20190;-83
2021/08/17 04:20:07;;;;;;;10.57;4.30;;;12.90;97.30;;;;;;4958517;28;20423;-83
2021/08/17 04:22:33;;;;;;;10.70;4.00;;;12.90;97.30;;;;;;4957622;29;20427;-80
2021/08/17 04:24:59;;;;;;;10.80;4.33;;;12.90;97.30;;;;;;4958157;29;20454;-81
2021/08/17 04:27:25;;;;;;;10.43;4.20;;;12.90;97.30;;;;;;4959751;28;20421;-82
2021/08/17 04:29:50;;;;;;;8.83;4.60;;;12.90;97.30;;;;;;4965079;29;20510;-82
2021/08/17 04:32:16;;;;;;;8.37;4.13;;;12.90;97.30;;;;;;4963577;28;20288;-82
2021/08/17 04:34:42;;;;;;;12.17;4.37;;;12.90;97.30;;;;;;4962834;29;20179;-82
2021/08/17 04:37:08;;;;;;;9.57;4.27;;;12.90;97.30;;;;;;4965327;29;20414;-80
2021/08/17 04:39:34;;;;;;;11.33;4.50;;;12.90;97.30;;;;;;4964322;29;20413;-82
2021/08/17 04:42:00;;;;;;;8.73;4.50;;;12.90;97.30;;;;;;4961101;28;20478;-80
2021/08/17 04:44:26;;;;;;;15.40;4.73;;;12.90;97.30;;;;;;4963614;29;20414;-82
2021/08/17 04:46:51;;;;;;;7.60;3.53;;;13.00;97.30;;;;;;4962361;29;20413;-82
2021/08/17 04:49:17;;;;;;;8.17;4.30;;;13.00;97.30;;;;;;4962574;29;20183;-83
2021/08/17 04:51:42;;;;;;;9.50;4.20;;;13.00;97.30;;;;;;4961581;29;20202;-81
2021/08/17 04:54:08;;;;;;;9.20;4.20;;;13.00;97.30;;;;;;4959915;29;20325;-83
2021/08/17 04:56:33;;;;;;;8.33;4.50;;;13.10;97.30;;;;;;4960101;29;20179;-83
2021/08/17 04:58:59;;;;;;;10.60;4.20;;;13.10;97.30;;;;;;4960821;29;20175;-83
2021/08/17 05:01:24;;;;;;;10.50;4.10;;;13.10;97.30;;;;;;4960601;28;20209;-82
2021/08/17 05:03:50;;;;;;;5.47;3.20;;;13.10;97.30;;;;;;4960831;28;20231;-82
2021/08/17 05:06:16;;;;;;;10.23;4.17;;;13.10;97.30;;;;;;4960049;29;20229;-83
2021/08/17 05:08:42;;;;;;;15.20;4.60;;;13.10;97.30;;;;;;4960217;29;20594;-81
2021/08/17 05:11:08;;;;;;;6.57;3.83;;;13.20;97.30;;;;;;4959722;29;20259;-82
2021/08/17 05:13:34;;;;;;;8.43;4.37;;;13.20;97.30;;;;;;4956619;29;20273;-84
2021/08/17 05:15:59;;;;;;;9.10;4.17;;;13.20;97.30;;;;;;4953950;29;20194;-84
2021/08/17 05:18:25;;;;;;;7.60;4.03;;;13.20;97.30;;;;;;4953398;29;20708;-84
2021/08/17 05:20:51;;;;;;;6.57;3.83;;;13.30;97.30;;;;;;4954987;28;20717;-84
2021/08/17 05:23:16;;;;;;;10.03;4.03;;;13.30;97.30;;;;;;4954552;29;20190;-83
2021/08/17 05:25:42;;;;;;;12.17;4.20;;;13.30;97.30;;;;;;4953391;29;20467;-83
2021/08/17 05:28:07;;;;;;;11.17;4.13;;;13.40;97.30;;;;;;4953454;29;20297;-82
2021/08/17 05:30:33;;;;;;;8.10;4.37;;;13.40;97.30;;;;;;4952924;29;20195;-84
2021/08/17 05:32:58;;;;;;;12.07;4.60;;;13.40;97.30;;;;;;4953174;29;20186;-84
2021/08/17 05:35:24;;;;;;;14.43;4.83;;;13.50;97.30;;;;;;4953319;29;20741;-84
2021/08/17 05:37:50;;;;;;;10.20;3.27;;;13.50;97.30;;;;;;4953566;29;20175;-83
2021/08/17 05:40:15;;;;;;;10.40;3.93;;;13.50;97.30;;;;;;4952313;28;20183;-81
2021/08/17 05:42:41;;;;;;;8.83;4.30;;;13.50;97.30;;;;;;4953551;29;20326;-84
2021/08/17 05:45:07;;;;;;;8.10;4.00;;;13.50;97.30;;;;;;4954160;29;20597;-82
2021/08/17 05:47:33;;;;;;;6.37;4.60;;;13.60;97.30;;;;;;4954095;29;20179;-81
2021/08/17 05:49:59;;;;;;;14.83;4.67;;;13.60;97.30;;;;;;4956435;29;20948;-83
2021/08/17 05:52:25;;;;;;;16.07;4.00;;;13.60;97.30;;;;;;4954329;28;20476;-83
2021/08/17 05:54:50;;;;;;;9.40;3.90;;;13.70;97.30;;;;;;4953977;29;20190;-82
2021/08/17 05:57:16;;;;;;;11.80;4.63;;;13.70;97.30;;;;;;4956289;29;20415;-82
2021/08/17 05:59:41;;;;;;;6.53;4.13;;;13.70;97.30;;;;;;4956337;29;20183;-83
2021/08/17 06:02:07;;;;;;;8.30;3.63;;;13.70;97.30;;;;;;4960957;28;20713;-84
2021/08/17 06:04:32;;;;;;;14.33;3.87;;;13.80;97.30;;;;;;4954133;29;20238;-83
2021/08/17 06:06:58;;;;;;;7.80;4.20;;;13.80;97.30;;;;;;4953730;29;20168;-84
2021/08/17 06:09:23;;;;;;;5.60;3.40;;;13.90;97.30;;;;;;4952057;29;20235;-84
2021/08/17 06:11:53;;;;;;;8.97;3.60;;;13.90;97.30;;;;;;4952236;28;20254;-83
2021/08/17 06:14:19;;;;;;;6.60;3.60;;;14.00;97.30;;;;;;4952334;29;20186;-83
2021/08/17 06:16:45;;;;;;;11.97;4.50;;;14.00;97.30;;;;;;4952520;29;20502;-84
2021/08/17 06:19:10;;;;;;;10.70;4.00;;;14.00;97.30;;;;;;4953187;29;20263;-84
2021/08/17 06:21:36;;;;;;;6.63;3.40;;;14.00;97.30;;;;;;4954012;28;20631;-83
2021/08/17 06:24:03;;;;;;;14.93;4.23;;;14.10;97.30;;;;;;4955439;29;20567;-84
2021/08/17 06:26:29;;;;;;;6.40;3.40;;;14.10;97.30;;;;;;4953154;29;20271;-84
2021/08/17 06:28:55;;;;;;;8.30;3.90;;;14.10;97.30;;;;;;4952746;29;21014;-84
2021/08/17 06:31:23;;;;;;;11.60;4.43;;;14.10;97.30;;;;;;4953287;28;20638;-85
2021/08/17 06:33:54;;;;;;;11.93;4.30;;;14.10;97.30;;;;;;4952784;29;20604;-84
2021/08/17 06:36:21;;;;;;;12.37;4.20;;;14.10;97.30;;;;;;4952804;29;20450;-84
2021/08/17 06:38:47;;;;;;;7.10;3.70;;;14.10;97.30;;;;;;4952139;29;20436;-82
2021/08/17 06:41:12;;;;;;;11.57;3.93;;;14.10;97.30;;;;;;4952582;28;20466;-82
2021/08/17 06:43:38;;;;;;;5.47;3.50;;;14.10;97.30;;;;;;4952374;29;20187;-84
2021/08/17 06:46:04;;;;;;;12.10;4.30;;;14.10;97.30;;;;;;4952344;29;20685;-82
2021/08/17 06:48:30;;;;;;;10.63;3.57;;;14.20;97.30;;;;;;4952809;28;20818;-83
2021/08/17 06:50:56;;;;;;;10.07;4.00;;;14.20;97.30;;;;;;4953026;28;20262;-83
2021/08/17 06:53:22;;;;;;;10.20;3.97;;;14.20;97.30;;;;;;4955622;29;20426;-84
2021/08/17 06:55:47;;;;;;;10.93;4.40;;;14.20;97.30;;;;;;4956957;29;20419;-84
2021/08/17 06:58:14;;;;;;;13.50;4.20;;;14.20;97.30;;;;;;4956737;29;20199;-82
2021/08/17 07:00:43;;;;;;;7.83;4.17;;;14.30;97.30;;;;;;4957324;28;20209;-83
2021/08/17 07:03:09;;;;;;;10.70;4.30;;;14.30;97.30;;;;;;4956965;29;20525;-82
2021/08/17 07:05:36;;;;;;;13.30;3.97;;;14.30;97.30;;;;;;4955782;29;21035;-84
2021/08/17 07:08:03;;;;;;;6.43;4.33;;;14.30;97.30;;;;;;4955636;29;20179;-83
2021/08/17 07:10:29;;;;;;;9.10;4.30;;;14.30;97.30;;;;;;4955954;28;21025;-84
2021/08/17 07:12:54;;;;;;;4.90;3.90;;;14.40;97.30;;;;;;4955560;29;20476;-84
2021/08/17 07:15:20;;;;;;;7.10;5.00;;;14.40;97.30;;;;;;4955646;29;20215;-84
2021/08/17 07:17:46;;;;;;;13.80;4.63;;;14.40;97.30;;;;;;4955831;29;20186;-84
2021/08/17 07:20:12;;;;;;;7.47;3.70;;;14.40;97.30;;;;;;4954543;28;20183;-83
2021/08/17 07:22:37;;;;;;;9.90;3.93;;;14.40;97.30;;;;;;4954641;29;20437;-83
2021/08/17 07:25:03;;;;;;;8.10;4.30;;;14.40;97.30;;;;;;4954677;29;20211;-83
2021/08/17 07:27:29;;;;;;;11.67;4.33;;;14.40;97.30;;;;;;4955453;29;20189;-84
2021/08/17 07:29:54;;;;;;;9.10;4.43;;;14.40;97.30;;;;;;4956949;29;20415;-83
2021/08/17 07:32:20;;;;;;;6.87;3.40;;;14.40;97.30;;;;;;4956716;28;20199;-84
2021/08/17 07:34:45;;;;;;;11.33;3.80;;;14.40;97.30;;;;;;4956709;29;20653;-84
2021/08/17 07:37:11;;;;;;;6.90;3.70;;;14.40;97.30;;;;;;4955267;29;20278;-84
2021/08/17 07:39:36;;;;;;;9.27;3.87;;;14.40;97.30;;;;;;4955634;29;20183;-84
2021/08/17 07:42:02;;;;;;;7.93;4.40;;;14.50;97.30;;;;;;4954698;28;20314;-83
2021/08/17 07:44:30;;;;;;;11.27;4.07;;;14.50;97.30;;;;;;4955334;29;20662;-83
2021/08/17 07:46:56;;;;;;;6.10;3.77;;;14.50;97.30;;;;;;4955090;28;20186;-83
2021/08/17 07:49:21;;;;;;;9.83;3.70;;;14.60;97.30;;;;;;4954020;29;20514;-84
2021/08/17 07:51:47;;;;;;;10.97;3.67;;;14.60;97.30;;;;;;4954378;29;20705;-82
2021/08/17 07:54:12;;;;;;;9.47;4.23;;;14.70;97.30;;;;;;4954712;29;20187;-84
2021/08/17 07:56:38;;;;;;;13.23;3.63;;;14.80;97.30;;;;;;4954730;29;20243;-85
2021/08/17 07:59:04;;;;;;;12.53;4.10;;;14.80;97.30;;;;;;4954445;29;20175;-84
2021/08/17 08:01:30;;;;;;;8.17;3.80;;;14.80;97.30;;;;;;4955360;29;20241;-85
2021/08/17 08:03:57;;;;;;;8.50;3.30;;;14.90;97.30;;;;;;4955481;28;20419;-83
2021/08/17 08:06:23;;;;;;;12.87;3.50;;;14.90;97.30;;;;;;4957183;28;20207;-84
2021/08/17 08:08:48;;;;;;;12.03;3.97;;;15.00;97.30;;;;;;4955778;29;20417;-85
2021/08/17 08:11:15;;;;;;;7.07;3.10;;;15.00;97.30;;;;;;4955300;28;20266;-84
2021/08/17 08:13:41;;;;;;;8.13;3.53;;;15.10;97.30;;;;;;4954771;29;20171;-83
2021/08/17 08:16:06;;;;;;;15.63;3.33;;;15.10;97.30;;;;;;4955137;29;20434;-85
2021/08/17 08:18:32;;;;;;;7.93;3.40;;;15.10;97.30;;;;;;4956065;28;20669;-83
2021/08/17 08:20:57;;;;;;;7.67;3.43;;;15.10;97.30;;;;;;4953480;29;20210;-85
2021/08/17 08:23:23;;;;;;;7.27;2.83;;;15.10;97.30;;;;;;4953167;29;20184;-85
2021/08/17 08:25:48;;;;;;;5.70;3.23;;;15.10;97.30;;;;;;4953736;29;20222;-85
2021/08/17 08:28:14;;;;;;;5.60;2.90;;;15.10;97.30;;;;;;4953531;29;20233;-84
2021/08/17 08:30:40;;;;;;;9.17;3.60;;;15.10;97.30;;;;;;4953595;29;21017;-84
2021/08/17 08:33:05;;;;;;;9.63;3.97;;;15.10;97.30;;;;;;4955759;28;20254;-85
2021/08/17 08:35:31;;;;;;;9.00;4.20;;;15.10;97.30;;;;;;4955555;29;20554;-85
2021/08/17 08:37:57;;;;;;;7.20;3.80;;;15.10;97.30;;;;;;4954863;29;20595;-84
2021/08/17 08:40:25;;;;;;;11.33;3.83;;;15.10;97.30;;;;;;4954585;29;20433;-84
2021/08/17 08:42:52;;;;;;;13.33;4.30;;;15.20;97.30;;;;;;4954153;28;20219;-85
2021/08/17 08:45:17;;;;;;;7.93;3.60;;;15.20;97.30;;;;;;4955003;28;20469;-84
2021/08/17 08:47:44;;;;;;;10.07;3.30;;;15.30;97.30;;;;;;4954980;28;20407;-84
2021/08/17 08:50:10;;;;;;;4.33;3.20;;;15.30;97.30;;;;;;4953160;28;20175;-84
2021/08/17 08:52:36;;;;;;;8.20;3.80;;;15.30;97.30;;;;;;4954080;29;20474;-84
2021/08/17 08:55:06;;;;;;;7.87;3.77;;;15.30;97.30;;;;;;4952477;29;20427;-85
2021/08/17 08:57:32;;;;;;;6.53;3.40;;;15.30;97.30;;;;;;4952960;29;20415;-82
2021/08/17 08:59:57;;;;;;;10.43;3.97;;;15.30;97.30;;;;;;4952859;29;20419;-85
2021/08/17 09:02:29;;;;;;;9.77;4.30;;;15.40;97.30;;;;;;4952704;28;20262;-85
2021/08/17 09:04:56;;;;;;;15.30;3.10;;;15.40;97.30;;;;;;4953200;29;20207;-85
2021/08/17 09:07:38;;;;;;;9.90;4.10;;;15.50;97.30;;;;;;4954874;29;20852;-84
2021/08/17 09:10:15;;;;;;;17.73;5.10;;;15.60;97.30;;;;;;4954437;29;20422;-85
2021/08/17 09:12:50;;;;;;;9.90;3.73;;;15.60;97.30;;;;;;4954779;29;20529;-84
2021/08/17 09:15:17;;;;;;;10.23;3.30;;;15.70;97.30;;;;;;4953557;28;20959;-84
2021/08/17 09:17:44;;;;;;;6.97;3.43;;;15.70;97.30;;;;;;4953065;29;20934;-84
2021/08/17 09:20:14;;;;;;;15.20;4.60;;;15.70;97.30;;;;;;4952901;28;20427;-84
2021/08/17 09:22:41;;;;;;;6.10;3.53;;;15.80;97.30;;;;;;4954462;29;20410;-84
2021/08/17 09:25:07;;;;;;;10.47;2.90;;;15.80;97.20;;;;;;4953677;29;20825;-84
2021/08/17 09:27:35;;;;;;;9.10;3.17;;;15.80;95.80;;;;;;4952205;29;20422;-82
2021/08/17 09:30:06;;;;;;;8.10;3.00;;;15.90;96.30;;;;;;4952085;29;20956;-84
2021/08/17 09:32:32;;;;;;;8.30;2.70;;;16.00;95.90;;;;;;4952471;29;20511;-84
2021/08/17 09:35:00;;;;;;;8.73;3.70;;;16.10;95.30;;;;;;4952204;29;20415;-83
2021/08/17 09:37:34;;;;;;;4.33;2.77;;;16.20;95.30;;;;;;4953308;29;20250;-85
2021/08/17 09:40:02;;;;;;;8.43;3.13;;;16.30;95.10;;;;;;4954481;29;20430;-85
2021/08/17 09:42:29;;;;;;;10.53;2.80;;;16.40;94.90;;;;;;4954093;28;20466;-84
2021/08/17 09:45:11;;;;;;;8.43;3.37;;;16.50;94.90;;;;;;4954128;29;20557;-83
2021/08/17 09:47:47;;;;;;;9.00;3.47;;;16.60;94.20;;;;;;4953362;29;20426;-84
2021/08/17 09:50:16;;;;;;;7.87;2.50;;;16.70;94.10;;;;;;4952906;29;20446;-84
2021/08/17 09:52:47;;;;;;;9.90;2.93;;;16.60;93.10;;;;;;4953300;29;20559;-84
2021/08/17 09:55:22;;;;;;;11.30;3.60;;;16.50;92.80;;;;;;4953605;28;21013;-82
2021/08/17 09:57:49;;;;;;;11.50;3.03;;;16.50;93.50;;;;;;4953583;28;20829;-84
2021/08/17 10:00:16;;;;;;;5.23;3.30;;;16.70;93.00;;;;;;4951665;29;20422;-83
2021/08/17 10:02:47;;;;;;;5.97;3.30;;;16.90;92.10;;;;;;4952412;29;20842;-84
2021/08/17 10:05:15;;;;;;;3.57;2.67;;;16.90;91.30;;;;;;4952103;29;20458;-84
2021/08/17 10:07:42;;;;;;;5.30;2.90;;;17.00;90.70;;;;;;4952354;29;20414;-83
2021/08/17 10:10:11;;;;;;;5.00;2.60;;;17.10;91.60;;;;;;4954150;28;20419;-84
2021/08/17 10:12:37;;;;;;;4.07;2.70;;;17.20;91.00;;;;;;4954190;29;20518;-84
2021/08/17 10:15:09;;;;;;;3.80;2.63;;;17.20;89.90;;;;;;4954253;29;20840;-83
2021/08/17 10:17:35;;;;;;;6.37;2.90;;;17.10;89.30;;;;;;4954432;29;20427;-85
2021/08/17 10:20:01;;;;;;;5.00;2.20;;;17.00;90.20;;;;;;4952823;29;20419;-85
2021/08/17 10:22:27;;;;;;;6.93;2.83;;;17.20;90.90;;;;;;4952469;29;20530;-84
2021/08/17 10:25:04;;;;;;;7.77;2.60;;;17.50;90.00;;;;;;4953797;28;20549;-85
2021/08/17 10:27:35;;;;;;;3.80;2.30;;;17.50;89.70;;;;;;4955818;29;20702;-83
2021/08/17 10:30:15;;;;;;;10.03;2.93;;;17.50;89.10;;;;;;4955071;29;20418;-84
2021/08/17 10:32:45;;;;;;;6.47;2.53;;;17.50;89.90;;;;;;4956614;28;20917;-85
2021/08/17 10:35:33;;;;;;;4.50;2.53;;;17.50;89.90;;;;;;4955199;29;20451;-83
2021/08/17 10:38:07;;;;;;;6.20;3.00;;;17.50;89.50;;;;;;4955789;29;20423;-83
2021/08/17 10:40:48;;;;;;;11.20;2.70;;;17.40;88.70;;;;;;4955668;29;20504;-84
2021/08/17 10:43:22;;;;;;;5.70;2.80;;;17.60;89.60;;;;;;4956474;29;20430;-84
2021/08/17 10:45:51;;;;;;;9.33;3.03;;;17.80;89.30;;;;;;4957319;29;20478;-84
2021/08/17 10:48:53;;;;;;;6.63;2.73;;;18.00;88.80;;;;;;4958095;28;20415;-85
2021/08/17 10:51:19;;;;;;;7.60;2.50;;;17.90;88.00;;;;;;4957251;29;20813;-84
2021/08/17 10:53:53;;;;;;;6.20;2.60;;;18.00;87.60;;;;;;4956268;29;20415;-85
2021/08/17 10:56:21;;;;;;;5.93;2.60;;;18.00;87.20;;;;;;4956320;29;20646;-82
2021/08/17 10:58:49;;;;;;;4.23;2.60;;;18.10;86.90;;;;;;4957055;28;20421;-85
2021/08/17 11:01:30;;;;;;;5.30;2.20;;;18.20;87.20;;;;;;4956043;29;20786;-83
2021/08/17 11:04:28;;;;;;;5.00;2.37;;;18.20;85.60;;;;;;4955804;28;20418;-82
2021/08/17 11:06:55;;;;;;;4.67;2.33;;;18.20;84.90;;;;;;4946439;29;20501;-83
2021/08/17 11:09:28;;;;;;;10.83;2.33;;;18.20;86.00;;;;;;4954548;29;20477;-86
2021/08/17 11:11:58;;;;;;;10.20;2.40;;;18.40;86.20;;;;;;4957690;28;20458;-83
2021/08/17 11:14:26;;;;;;;5.27;2.20;;;18.80;86.40;;;;;;4955078;29;20415;-86
2021/08/17 11:17:00;;;;;;;7.73;2.63;;;19.10;84.30;;;;;;4955933;29;20425;-82
2021/08/17 11:19:28;;;;;;;10.63;2.73;;;19.10;82.20;;;;;;4956828;29;20425;-82
2021/08/17 11:21:56;;;;;;;6.23;2.80;;;18.90;82.10;;;;;;4956961;29;20443;-85
2021/08/17 11:24:29;;;;;;;3.37;2.37;;;18.90;83.30;;;;;;4956518;29;20849;-85
2021/08/17 11:27:01;;;;;;;4.07;2.23;;;19.00;84.30;;;;;;4955408;29;20431;-84
2021/08/17 11:29:42;;;;;;;4.93;1.97;;;18.90;83.80;;;;;;4955884;29;20819;-84
2021/08/17 11:32:44;;;;;;;3.00;2.10;;;18.90;84.60;;;;;;4955971;29;20439;-85
2021/08/17 11:35:20;;;;;;;6.50;2.53;;;19.00;82.60;;;;;;4955575;29;20808;-80
2021/08/17 11:37:48;;;;;;;8.03;2.63;;;19.20;83.00;;;;;;4954345;28;20414;-85
2021/08/17 11:40:16;;;;;;;7.07;2.97;;;19.20;82.00;;;;;;4953719;29;20419;-85
2021/08/17 11:42:49;;;;;;;7.13;2.40;;;19.20;83.50;;;;;;4972011;28;20472;-82
2021/08/17 11:45:20;;;;;;;6.17;2.70;;;19.20;82.40;;;;;;4957613;28;20465;-85
2021/08/17 11:47:48;;;;;;;10.13;2.07;;;19.20;82.50;;;;;;4974890;28;20418;-85
2021/08/17 11:50:16;;;;;;;7.40;2.50;;;19.20;82.50;;;;;;4957666;28;20755;-82
2021/08/17 11:52:45;;;;;;;7.77;2.30;;;19.20;81.60;;;;;;4975069;28;20940;-85
2021/08/17 11:55:13;;;;;;;5.50;2.40;;;19.30;81.70;;;;;;4958995;28;20497;-85
2021/08/17 11:57:44;;;;;;;3.60;2.00;;;19.20;81.80;;;;;;4959242;28;20512;-85
2021/08/17 12:00:14;;;;;;;7.63;2.60;;;19.20;82.00;;;;;;4958532;28;20437;-83
2021/08/17 12:02:42;;;;;;;8.50;2.33;;;19.20;80.50;;;;;;4958021;28;20508;-82
2021/08/17 12:05:11;;;;;;;7.10;2.63;;;19.20;80.00;;;;;;4957925;28;20524;-82
2021/08/17 12:07:37;;;;;;;7.07;2.80;;;19.10;79.50;;;;;;4958262;28;20418;-85
2021/08/17 12:10:21;;;;;;;9.40;2.60;;;19.10;80.50;;;;;;4957528;28;20426;-84
2021/08/17 12:13:03;;;;;;;6.03;2.10;;;19.30;81.90;;;;;;4974787;28;20770;-85
2021/08/17 12:15:36;;;;;;;6.33;2.83;;;19.40;80.90;;;;;;4956899;28;20422;-84
2021/08/17 12:18:13;;;;;;;12.40;2.57;;;19.50;82.00;;;;;;4957304;28;20430;-83
2021/08/17 12:21:03;;;;;;;5.93;2.40;;;19.80;81.20;;;;;;4957140;28;20445;-83
2021/08/17 12:23:37;;;;;;;9.17;3.03;;;19.80;80.50;;;;;;4977008;28;20424;-83
2021/08/17 12:26:14;;;;;;;9.57;2.33;;;19.80;80.90;;;;;;4959410;28;20995;-81
2021/08/17 12:28:41;;;;;;;5.23;2.83;;;19.70;80.10;;;;;;4976210;28;20420;-83
2021/08/17 12:31:19;;;;;;;4.03;2.57;;;19.60;80.90;;;;;;4959252;28;20469;-83
2021/08/17 12:33:50;;;;;;;6.07;2.60;;;19.60;81.10;;;;;;4958393;28;20425;-83
2021/08/17 12:36:16;;;;;;;5.47;2.63;;;19.40;79.90;;;;;;4958052;28;20483;-83
2021/08/17 12:38:42;;;;;;;5.17;2.60;;;19.30;80.80;;;;;;4957013;28;20630;-83
2021/08/17 12:41:07;;;;;;;12.23;3.00;;;19.20;80.20;;;;;;4956271;28;20616;-84
2021/08/17 12:43:40;;;;;;;9.23;2.97;;;19.40;81.10;;;;;;4955712;28;20181;-84
2021/08/17 12:46:13;;;;;;;6.77;2.50;;;19.60;81.00;;;;;;4955912;28;20206;-84